createdAt,value
2023-03-24T00:00:52.665Z,0.00
2023-03-24T00:01:52.669Z,0.00
2023-03-24T00:02:52.744Z,0.00
2023-03-24T00:03:52.829Z,0.00
2023-03-24T00:04:52.670Z,0.00
2023-03-24T00:05:52.619Z,0.00
2023-03-24T00:06:52.685Z,0.00
2023-03-24T00:07:54.877Z,0.00
2023-03-24T00:08:52.579Z,0.00
2023-03-24T00:09:52.601Z,0.00
2023-03-24T00:10:52.578Z,0.00
2023-03-24T00:11:52.571Z,0.00
2023-03-24T00:12:52.559Z,0.00
2023-03-24T00:13:52.552Z,0.00
2023-03-24T00:14:52.513Z,0.00
2023-03-24T00:15:52.600Z,0.00
2023-03-24T00:16:52.482Z,0.00
2023-03-24T00:17:52.729Z,0.00
2023-03-24T00:18:52.457Z,0.00
2023-03-24T00:19:52.480Z,0.00
2023-03-24T00:20:52.437Z,0.00
2023-03-24T00:21:52.476Z,0.00
2023-03-24T00:22:52.421Z,0.00
2023-03-24T00:23:52.423Z,0.00
2023-03-24T00:24:52.395Z,0.00
2023-03-24T00:25:52.400Z,0.00
2023-03-24T00:26:52.390Z,0.00
2023-03-24T00:27:52.402Z,0.00
2023-03-24T00:28:52.355Z,0.00
2023-03-24T00:29:52.353Z,0.00
2023-03-24T00:30:52.357Z,0.00
2023-03-24T00:31:52.331Z,0.00
2023-03-24T00:32:52.427Z,0.00
2023-03-24T00:33:52.342Z,0.00
2023-03-24T00:34:52.328Z,0.00
2023-03-24T00:35:52.355Z,0.00
2023-03-24T00:36:52.275Z,0.00
2023-03-24T00:37:52.376Z,0.00
2023-03-24T00:38:52.248Z,0.00
2023-03-24T00:39:52.287Z,0.00
2023-03-24T00:40:52.235Z,0.00
2023-03-24T00:41:52.234Z,0.00
2023-03-24T00:42:52.207Z,0.00
2023-03-24T00:43:52.196Z,0.00
2023-03-24T00:44:52.191Z,0.00
2023-03-24T00:45:52.225Z,0.00
2023-03-24T00:46:52.216Z,0.00
2023-03-24T00:47:52.194Z,0.00
2023-03-24T00:48:52.150Z,0.00
2023-03-24T00:49:52.158Z,0.00
2023-03-24T00:50:52.144Z,0.00
2023-03-24T00:51:52.173Z,0.00
2023-03-24T00:52:52.101Z,0.00
2023-03-24T00:53:52.106Z,0.00
2023-03-24T00:54:52.078Z,0.00
2023-03-24T00:55:52.095Z,0.00
2023-03-24T00:56:52.086Z,0.00
2023-03-24T00:57:52.105Z,0.00
2023-03-24T00:58:52.045Z,0.00
2023-03-24T00:59:52.054Z,0.00
2023-03-24T01:00:52.028Z,0.00
2023-03-24T01:01:52.075Z,0.00
2023-03-24T01:02:52.025Z,0.00
2023-03-24T01:03:52.025Z,0.00
2023-03-24T01:04:51.979Z,0.00
2023-03-24T01:05:51.989Z,0.00
2023-03-24T01:06:51.936Z,0.00
2023-03-24T01:07:51.972Z,0.00
2023-03-24T01:08:51.926Z,0.00
2023-03-24T01:09:51.978Z,0.00
2023-03-24T01:10:51.894Z,0.00
2023-03-24T01:11:51.923Z,0.00
2023-03-24T01:12:51.885Z,0.00
2023-03-24T01:13:51.896Z,0.00
2023-03-24T01:14:51.852Z,0.00
2023-03-24T01:15:51.974Z,0.00
2023-03-24T01:16:51.852Z,0.00
2023-03-24T01:17:51.862Z,0.00
2023-03-24T01:18:51.818Z,0.00
2023-03-24T01:19:51.821Z,0.00
2023-03-24T01:20:51.835Z,0.00
2023-03-24T01:21:51.787Z,0.00
2023-03-24T01:22:51.837Z,0.00
2023-03-24T01:23:51.749Z,0.00
2023-03-24T01:24:51.804Z,0.00
2023-03-24T01:25:51.786Z,0.00
2023-03-24T01:26:51.738Z,0.00
2023-03-24T01:27:51.751Z,0.00
2023-03-24T01:28:51.723Z,0.00
2023-03-24T01:29:51.689Z,0.00
2023-03-24T01:30:51.700Z,0.00
2023-03-24T01:31:51.705Z,0.00
2023-03-24T01:32:51.712Z,0.00
2023-03-24T01:33:51.674Z,0.00
2023-03-24T01:34:51.669Z,0.00
2023-03-24T01:35:51.647Z,0.00
2023-03-24T01:36:51.635Z,0.00
2023-03-24T01:37:51.636Z,0.00
2023-03-24T01:38:51.651Z,0.00
2023-03-24T01:39:51.600Z,0.00
2023-03-24T01:40:51.588Z,0.00
2023-03-24T01:41:51.570Z,0.00
2023-03-24T01:42:51.591Z,0.00
2023-03-24T01:43:51.531Z,0.00
2023-03-24T01:44:51.554Z,0.00
2023-03-24T01:45:52.068Z,0.00
2023-03-24T01:46:51.544Z,0.00
2023-03-24T01:47:51.544Z,0.00
2023-03-24T01:48:51.505Z,0.00
2023-03-24T01:49:51.468Z,0.00
2023-03-24T01:50:51.475Z,0.00
2023-03-24T01:51:51.495Z,0.00
2023-03-24T01:52:51.470Z,0.00
2023-03-24T01:53:51.446Z,0.00
2023-03-24T01:54:51.449Z,0.00
2023-03-24T01:55:51.405Z,0.00
2023-03-24T01:56:51.471Z,0.00
2023-03-24T01:57:51.428Z,0.00
2023-03-24T01:58:51.398Z,0.00
2023-03-24T01:59:51.378Z,0.00
2023-03-24T02:00:51.409Z,0.00
2023-03-24T02:01:51.337Z,0.00
2023-03-24T02:02:51.417Z,0.00
2023-03-24T02:03:51.389Z,0.00
2023-03-24T02:04:51.326Z,0.00
2023-03-24T02:05:51.313Z,0.00
2023-03-24T02:06:51.315Z,0.00
2023-03-24T02:07:51.322Z,0.00
2023-03-24T02:08:51.291Z,0.00
2023-03-24T02:09:51.277Z,0.00
2023-03-24T02:10:51.262Z,0.00
2023-03-24T02:11:51.252Z,0.00
2023-03-24T02:12:51.259Z,0.00
2023-03-24T02:13:51.210Z,0.00
2023-03-24T02:14:51.226Z,0.00
2023-03-24T02:15:51.234Z,0.00
2023-03-24T02:16:51.227Z,0.00
2023-03-24T02:17:51.238Z,0.00
2023-03-24T02:18:51.197Z,0.00
2023-03-24T02:19:51.144Z,0.00
2023-03-24T02:20:51.177Z,0.00
2023-03-24T02:21:51.120Z,0.00
2023-03-24T02:22:51.224Z,0.00
2023-03-24T02:23:51.129Z,0.00
2023-03-24T02:24:51.102Z,0.00
2023-03-24T02:25:51.097Z,0.00
2023-03-24T02:26:51.079Z,0.00
2023-03-24T02:27:51.068Z,0.00
2023-03-24T02:28:51.119Z,0.00
2023-03-24T02:29:51.074Z,0.00
2023-03-24T07:01:00.324Z,821.00
2023-03-24T07:02:01.354Z,701.00
2023-03-24T07:03:01.381Z,1075.00
2023-03-24T07:04:01.331Z,758.00
2023-03-24T07:05:01.270Z,785.00
2023-03-24T07:06:01.290Z,783.00
2023-03-24T07:07:22.498Z,960.00
2023-03-24T07:09:01.220Z,1196.00
2023-03-24T07:10:01.234Z,1234.00
2023-03-24T07:11:01.187Z,1283.00
2023-03-24T07:12:01.234Z,1206.00
2023-03-24T07:13:01.164Z,868.00
2023-03-24T07:14:01.207Z,487.00
2023-03-24T07:15:01.150Z,599.00
2023-03-24T07:16:01.184Z,588.00
2023-03-24T07:17:01.134Z,318.00
2023-03-24T07:18:01.177Z,397.00
2023-03-24T07:19:01.125Z,431.00
2023-03-24T07:20:01.116Z,356.00
2023-03-24T07:21:01.076Z,578.00
2023-03-24T07:22:01.088Z,467.00
2023-03-24T07:23:01.106Z,486.00
2023-03-24T07:24:01.173Z,517.00
2023-03-24T07:25:01.038Z,368.00
2023-03-24T07:26:01.067Z,364.00
2023-03-24T07:27:01.028Z,374.00
2023-03-24T07:28:01.013Z,310.00
2023-03-24T07:29:00.995Z,443.00
2023-03-24T07:30:01.024Z,429.00
2023-03-24T07:31:01.298Z,240.00
2023-03-24T07:32:01.121Z,380.00
2023-03-24T07:33:01.010Z,485.00
2023-03-24T07:34:01.994Z,431.00
2023-03-24T07:35:01.008Z,547.00
2023-03-24T07:36:01.013Z,624.00
2023-03-24T07:37:02.072Z,624.00
2023-03-24T07:38:00.903Z,1069.00
2023-03-24T07:39:00.888Z,1333.00
2023-03-24T07:40:00.887Z,1257.00
2023-03-24T07:41:00.873Z,1351.00
2023-03-24T07:42:00.970Z,1308.00
2023-03-24T07:43:00.831Z,855.00
2023-03-24T07:44:00.848Z,823.00
2023-03-24T07:45:00.829Z,1213.00
2023-03-24T07:46:00.898Z,1292.00
2023-03-24T07:47:00.819Z,1431.00
2023-03-24T07:48:00.873Z,1278.00
2023-03-24T07:49:11.867Z,914.00
2023-03-24T07:50:00.789Z,1077.00
2023-03-24T07:51:00.754Z,1580.00
2023-03-24T07:52:00.774Z,1250.00
2023-03-24T07:53:00.784Z,890.00
2023-03-24T07:54:01.092Z,1212.00
2023-03-24T07:55:00.709Z,976.00
2023-03-24T07:56:00.720Z,372.00
2023-03-24T07:57:00.734Z,1040.00
2023-03-24T07:58:00.692Z,890.00
2023-03-24T07:59:00.736Z,717.00
2023-03-24T08:00:00.688Z,593.00
2023-03-24T08:01:00.648Z,424.00
2023-03-24T08:02:00.795Z,303.00
2023-03-24T08:03:00.885Z,196.00
2023-03-24T08:04:00.712Z,337.00
2023-03-24T08:05:00.610Z,268.00
2023-03-24T08:06:00.625Z,248.00
2023-03-24T08:07:00.576Z,145.00
2023-03-24T08:08:00.594Z,133.00
2023-03-24T08:09:00.556Z,180.00
2023-03-24T08:10:00.577Z,203.00
2023-03-24T08:11:00.566Z,307.00
2023-03-24T08:12:04.366Z,278.00
2023-03-24T08:13:00.521Z,346.00
2023-03-24T08:14:00.578Z,273.00
2023-03-24T08:15:00.503Z,128.00
2023-03-24T08:16:00.502Z,404.00
2023-03-24T08:17:00.520Z,561.00
2023-03-24T08:18:00.531Z,341.00
2023-03-24T08:19:00.462Z,404.00
2023-03-24T08:20:02.165Z,734.00
2023-03-24T08:21:00.429Z,855.00
2023-03-24T08:22:00.436Z,739.00
2023-03-24T08:23:00.405Z,591.00
2023-03-24T08:24:00.404Z,396.00
2023-03-24T08:25:00.376Z,557.00
2023-03-24T08:26:00.444Z,550.00
2023-03-24T08:27:00.360Z,316.00
2023-03-24T08:28:00.368Z,428.00
2023-03-24T08:29:00.350Z,522.00
2023-03-24T08:30:00.336Z,409.00
2023-03-24T08:31:00.377Z,496.00
2023-03-24T08:32:00.345Z,430.00
2023-03-24T08:33:00.351Z,346.00
2023-03-24T08:34:00.316Z,218.00
2023-03-24T08:35:00.274Z,318.00
2023-03-24T08:36:00.304Z,364.00
2023-03-24T08:37:00.301Z,243.00
2023-03-24T08:38:00.252Z,460.00
2023-03-24T08:39:00.236Z,733.00
2023-03-24T08:40:00.239Z,802.00
2023-03-24T08:41:00.215Z,727.00
2023-03-24T08:42:00.220Z,731.00
2023-03-24T08:43:00.176Z,764.00
2023-03-24T08:44:00.207Z,910.00
2023-03-24T08:45:00.167Z,907.00
2023-03-24T08:46:00.240Z,805.00
2023-03-24T08:47:00.167Z,789.00
2023-03-24T08:48:00.201Z,663.00
2023-03-24T08:49:00.130Z,607.00
2023-03-24T08:50:00.136Z,722.00
2023-03-24T08:51:00.105Z,688.00
2023-03-24T08:52:00.147Z,624.00
2023-03-24T08:53:00.109Z,570.00
2023-03-24T08:54:00.113Z,455.00
2023-03-24T08:55:00.108Z,557.00
2023-03-24T08:56:00.051Z,814.00
2023-03-24T08:57:00.089Z,891.00
2023-03-24T08:58:00.070Z,822.00
2023-03-24T08:59:00.045Z,768.00
2023-03-24T09:00:00.009Z,702.00
2023-03-24T09:00:59.982Z,795.00
2023-03-24T09:02:00.071Z,821.00
2023-03-24T09:02:59.989Z,731.00
2023-03-24T09:03:59.977Z,671.00
2023-03-24T09:05:00.035Z,794.00
2023-03-24T09:06:00.348Z,808.00
2023-03-24T09:07:02.306Z,852.00
2023-03-24T09:07:59.917Z,904.00
2023-03-24T09:08:59.922Z,1054.00
2023-03-24T09:09:59.915Z,1275.00
2023-03-24T09:10:59.995Z,866.00
2023-03-24T09:11:59.921Z,1470.00
2023-03-24T09:12:59.876Z,1571.00
2023-03-24T09:13:59.953Z,1146.00
2023-03-24T09:14:59.838Z,1088.00
2023-03-24T09:15:59.887Z,1209.00
2023-03-24T09:16:59.810Z,967.00
2023-03-24T09:17:59.873Z,1146.00
2023-03-24T09:18:59.863Z,961.00
2023-03-24T09:20:02.044Z,895.00
2023-03-24T09:20:59.770Z,886.00
2023-03-24T09:21:59.792Z,893.00
2023-03-24T09:22:59.752Z,834.00
2023-03-24T09:23:59.828Z,1088.00
2023-03-24T09:24:59.738Z,1198.00
2023-03-24T09:25:59.769Z,1272.00
2023-03-24T09:26:59.711Z,1176.00
2023-03-24T09:27:59.710Z,943.00
2023-03-24T09:28:59.674Z,1040.00
2023-03-24T09:29:59.683Z,875.00
2023-03-24T09:30:59.762Z,679.00
2023-03-24T09:31:59.687Z,602.00
2023-03-24T09:32:59.749Z,645.00
2023-03-24T09:34:00.246Z,1051.00
2023-03-24T09:34:59.613Z,1461.00
2023-03-24T09:36:00.399Z,1679.00
2023-03-24T09:36:59.597Z,1319.00
2023-03-24T09:37:59.628Z,1173.00
2023-03-24T09:38:59.583Z,1466.00
2023-03-24T09:39:59.564Z,1926.00
2023-03-24T09:40:59.558Z,1666.00
2023-03-24T09:41:59.546Z,1420.00
2023-03-24T09:42:59.549Z,1518.00
2023-03-24T09:43:59.573Z,1932.00
2023-03-24T09:44:59.521Z,2212.00
2023-03-24T09:45:59.520Z,1945.00
2023-03-24T09:46:59.539Z,1853.00
2023-03-24T09:47:59.552Z,1893.00
2023-03-24T09:48:59.484Z,1775.00
2023-03-24T09:49:59.499Z,1820.00
2023-03-24T09:50:59.471Z,1742.00
2023-03-24T09:51:59.437Z,1594.00
2023-03-24T09:52:59.430Z,950.00
2023-03-24T09:53:59.492Z,1000.00
2023-03-24T09:54:59.410Z,1317.00
2023-03-24T09:55:59.411Z,1114.00
2023-03-24T09:56:59.440Z,819.00
2023-03-24T09:57:59.392Z,805.00
2023-03-24T09:58:59.354Z,1207.00
2023-03-24T09:59:59.387Z,1109.00
2023-03-24T10:00:59.365Z,911.00
2023-03-24T10:01:59.360Z,796.00
2023-03-24T10:02:59.365Z,652.00
2023-03-24T10:03:59.445Z,516.00
2023-03-24T10:04:59.298Z,413.00
2023-03-24T10:05:59.347Z,299.00
2023-03-24T10:06:59.282Z,517.00
2023-03-24T10:07:59.319Z,596.00
2023-03-24T10:08:59.272Z,640.00
2023-03-24T10:09:59.296Z,630.00
2023-03-24T10:10:59.249Z,455.00
2023-03-24T10:11:59.297Z,680.00
2023-03-24T10:12:59.253Z,666.00
2023-03-24T10:13:59.209Z,565.00
2023-03-24T10:14:59.211Z,501.00
2023-03-24T10:15:59.208Z,441.00
2023-03-24T10:16:59.186Z,361.00
2023-03-24T10:17:59.300Z,180.00
2023-03-24T10:18:59.180Z,230.00
2023-03-24T10:20:00.208Z,1395.00
2023-03-24T10:20:59.155Z,1416.00
2023-03-24T10:21:59.182Z,875.00
2023-03-24T10:22:59.116Z,649.00
2023-03-24T10:23:59.093Z,387.00
2023-03-24T10:24:59.084Z,712.00
2023-03-24T10:25:59.126Z,847.00
2023-03-24T10:26:59.072Z,790.00
2023-03-24T10:27:59.129Z,509.00
2023-03-24T10:28:59.048Z,792.00
2023-03-24T10:29:59.021Z,649.00
2023-03-24T10:30:59.045Z,704.00
2023-03-24T10:31:59.112Z,868.00
2023-03-24T10:32:59.134Z,813.00
2023-03-24T10:33:59.020Z,599.00
2023-03-24T10:34:58.991Z,833.00
2023-03-24T10:35:59.015Z,843.00
2023-03-24T10:36:58.969Z,855.00
2023-03-24T10:37:58.950Z,799.00
2023-03-24T10:39:03.905Z,1223.00
2023-03-24T10:39:58.957Z,1923.00
2023-03-24T10:40:58.932Z,2027.00
2023-03-24T10:41:58.927Z,1751.00
2023-03-24T10:43:07.440Z,1834.00
2023-03-24T10:43:58.885Z,2110.00
2023-03-24T10:44:58.888Z,2410.00
2023-03-24T10:45:58.908Z,2408.00
2023-03-24T10:46:58.873Z,2485.00
2023-03-24T10:47:58.932Z,2860.00
2023-03-24T10:48:58.845Z,2472.00
2023-03-24T10:49:58.834Z,2722.00
2023-03-24T10:50:58.884Z,2535.00
2023-03-24T10:51:58.803Z,2497.00
2023-03-24T10:52:58.808Z,2335.00
2023-03-24T10:53:58.793Z,1910.00
2023-03-24T10:54:58.774Z,1725.00
2023-03-24T10:55:58.764Z,1840.00
2023-03-24T10:56:58.851Z,2126.00
2023-03-24T10:57:58.741Z,1698.00
2023-03-24T10:58:58.758Z,1434.00
2023-03-24T10:59:58.762Z,1566.00
2023-03-24T11:00:58.776Z,1418.00
2023-03-24T11:01:58.753Z,886.00
2023-03-24T11:02:58.932Z,1141.00
2023-03-24T11:03:58.670Z,1272.00
2023-03-24T11:04:58.687Z,978.00
2023-03-24T11:05:58.686Z,1935.00
2023-03-24T11:06:59.427Z,2257.00
2023-03-24T11:07:58.614Z,2197.00
2023-03-24T11:08:58.641Z,2041.00
2023-03-24T11:09:58.607Z,1519.00
2023-03-24T11:10:58.615Z,1656.00
2023-03-24T11:11:58.566Z,1402.00
2023-03-24T11:12:58.614Z,871.00
2023-03-24T11:13:58.543Z,1942.00
2023-03-24T11:15:01.380Z,2613.00
2023-03-24T11:15:58.548Z,1983.00
2023-03-24T11:16:58.555Z,2085.00
2023-03-24T11:17:58.564Z,2351.00
2023-03-24T11:18:58.536Z,2437.00
2023-03-24T11:19:58.474Z,2721.00
2023-03-24T11:20:58.490Z,3054.00
2023-03-24T11:21:58.484Z,4291.00
2023-03-24T11:22:58.479Z,4085.00
2023-03-24T11:23:58.430Z,3729.00
2023-03-24T11:24:58.440Z,2885.00
2023-03-24T11:25:58.419Z,1823.00
2023-03-24T11:26:58.426Z,1863.00
2023-03-24T11:27:58.416Z,2970.00
2023-03-24T11:28:58.415Z,2341.00
2023-03-24T11:29:58.382Z,2138.00
2023-03-24T11:30:58.451Z,2413.00
2023-03-24T11:31:58.379Z,1811.00
2023-03-24T11:32:58.447Z,1559.00
2023-03-24T11:33:58.336Z,1436.00
2023-03-24T11:34:58.361Z,1286.00
2023-03-24T11:36:05.177Z,1534.00
2023-03-24T11:36:58.385Z,3127.00
2023-03-24T11:37:58.342Z,3604.00
2023-03-24T11:38:58.293Z,3112.00
2023-03-24T11:39:58.260Z,3210.00
2023-03-24T11:40:58.270Z,2944.00
2023-03-24T11:41:58.245Z,3154.00
2023-03-24T11:42:58.237Z,2756.00
2023-03-24T11:43:58.246Z,2630.00
2023-03-24T11:44:58.241Z,2708.00
2023-03-24T11:45:58.219Z,2323.00
2023-03-24T11:46:58.244Z,2539.00
2023-03-24T11:47:58.225Z,2646.00
2023-03-24T11:48:58.177Z,2272.00
2023-03-24T11:49:58.182Z,3193.00
2023-03-24T11:50:58.180Z,2795.00
2023-03-24T11:51:58.161Z,2137.00
2023-03-24T11:52:58.146Z,2274.00
2023-03-24T11:53:58.126Z,2543.00
2023-03-24T11:54:58.130Z,3069.00
2023-03-24T11:55:58.145Z,2738.00
2023-03-24T11:56:58.183Z,3101.00
2023-03-24T11:57:58.099Z,2751.00
2023-03-24T11:58:58.078Z,2870.00
2023-03-24T11:59:58.319Z,2499.00
2023-03-24T12:00:58.096Z,2630.00
2023-03-24T12:01:58.044Z,2494.00
2023-03-24T12:02:58.180Z,2785.00
2023-03-24T12:03:58.050Z,2971.00
2023-03-24T12:04:58.014Z,3131.00
2023-03-24T12:05:58.070Z,2733.00
2023-03-24T12:06:57.996Z,2506.00
2023-03-24T12:07:58.003Z,2114.00
2023-03-24T12:08:57.981Z,2624.00
2023-03-24T12:09:57.940Z,3047.00
2023-03-24T12:10:57.978Z,2526.00
2023-03-24T12:11:57.911Z,2282.00
2023-03-24T12:12:57.935Z,2274.00
2023-03-24T12:13:57.938Z,2178.00
2023-03-24T12:14:57.922Z,2025.00
2023-03-24T12:15:57.944Z,2077.00
2023-03-24T12:16:57.875Z,1799.00
2023-03-24T12:17:57.865Z,2037.00
2023-03-24T12:18:57.935Z,2382.00
2023-03-24T12:19:57.835Z,2777.00
2023-03-24T12:20:57.843Z,2609.00
2023-03-24T12:21:57.803Z,2094.00
2023-03-24T12:22:57.808Z,2323.00
2023-03-24T12:23:57.789Z,2696.00
2023-03-24T12:24:57.801Z,2624.00
2023-03-24T12:25:57.759Z,2825.00
2023-03-24T12:26:57.762Z,2654.00
2023-03-24T12:27:57.745Z,1997.00
2023-03-24T12:28:58.020Z,2632.00
2023-03-24T12:29:57.740Z,3149.00
2023-03-24T12:30:57.778Z,1787.00
2023-03-24T12:31:57.743Z,3377.00
2023-03-24T12:32:57.734Z,2972.00
2023-03-24T12:33:57.680Z,2563.00
2023-03-24T12:34:57.752Z,2586.00
2023-03-24T12:35:57.738Z,2440.00
2023-03-24T12:36:57.676Z,2336.00
2023-03-24T12:37:57.624Z,2286.00
2023-03-24T12:38:57.638Z,1925.00
2023-03-24T12:39:57.621Z,3065.00
2023-03-24T12:40:57.634Z,3118.00
2023-03-24T12:41:57.607Z,3674.00
2023-03-24T12:42:57.586Z,2155.00
2023-03-24T12:43:57.626Z,3435.00
2023-03-24T12:44:57.576Z,2479.00
2023-03-24T12:45:57.708Z,2644.00
2023-03-24T12:46:57.582Z,2674.00
2023-03-24T12:47:57.561Z,1922.00
2023-03-24T12:48:57.554Z,3301.00
2023-03-24T12:49:57.523Z,3009.00
2023-03-24T12:50:57.518Z,3463.00
2023-03-24T12:51:57.522Z,2552.00
2023-03-24T12:53:07.631Z,2795.00
2023-03-24T12:53:57.478Z,3350.00
2023-03-24T12:54:57.453Z,2585.00
2023-03-24T12:55:57.464Z,2803.00
2023-03-24T12:56:57.456Z,3023.00
2023-03-24T12:57:57.413Z,2490.00
2023-03-24T12:58:57.414Z,2391.00
2023-03-24T12:59:57.414Z,2306.00
2023-03-24T13:00:57.443Z,2027.00
2023-03-24T13:01:57.393Z,3028.00
2023-03-24T13:02:57.560Z,2975.00
2023-03-24T13:03:57.339Z,2349.00
2023-03-24T13:04:57.363Z,1766.00
2023-03-24T13:06:07.210Z,2272.00
2023-03-24T13:06:57.324Z,2183.00
2023-03-24T13:07:57.313Z,2294.00
2023-03-24T13:08:57.316Z,1739.00
2023-03-24T13:09:57.303Z,2111.00
2023-03-24T13:10:57.341Z,2292.00
2023-03-24T13:11:57.317Z,2665.00
2023-03-24T13:12:57.261Z,1859.00
2023-03-24T13:13:57.234Z,2148.00
2023-03-24T13:14:57.259Z,2674.00
2023-03-24T13:15:57.242Z,2104.00
2023-03-24T13:16:57.261Z,2551.00
2023-03-24T13:17:57.328Z,2609.00
2023-03-24T13:18:57.232Z,2368.00
2023-03-24T13:19:57.196Z,2782.00
2023-03-24T13:20:57.178Z,1864.00
2023-03-24T13:21:57.170Z,2588.00
2023-03-24T13:22:57.160Z,2507.00
2023-03-24T13:23:57.164Z,2030.00
2023-03-24T13:24:57.192Z,2308.00
2023-03-24T13:25:57.120Z,2172.00
2023-03-24T13:26:57.111Z,2640.00
2023-03-24T13:27:57.096Z,2675.00
2023-03-24T13:28:57.129Z,2715.00
2023-03-24T13:29:57.080Z,3576.00
2023-03-24T13:30:57.073Z,3041.00
2023-03-24T13:31:57.094Z,2323.00
2023-03-24T13:32:57.087Z,1848.00
2023-03-24T13:33:57.020Z,1982.00
2023-03-24T13:34:56.046Z,1934.00
2023-03-24T13:35:57.442Z,1505.00
2023-03-24T13:36:57.032Z,1913.00
2023-03-24T13:37:56.984Z,2266.00
2023-03-24T13:38:56.999Z,2170.00
2023-03-24T13:39:57.014Z,1964.00
2023-03-24T13:40:56.985Z,1950.00
2023-03-24T13:41:56.962Z,1934.00
2023-03-24T13:42:56.954Z,1893.00
2023-03-24T13:43:56.918Z,1897.00
2023-03-24T13:44:56.958Z,2386.00
2023-03-24T13:45:56.970Z,2354.00
2023-03-24T13:46:56.899Z,2078.00
2023-03-24T13:47:57.844Z,1977.00
2023-03-24T13:48:56.865Z,1676.00
2023-03-24T13:49:56.846Z,628.00
2023-03-24T13:50:56.873Z,1995.00
2023-03-24T13:51:56.827Z,1997.00
2023-03-24T13:52:56.823Z,2009.00
2023-03-24T13:53:56.817Z,2016.00
2023-03-24T13:54:56.814Z,1998.00
2023-03-24T13:55:56.804Z,2029.00
2023-03-24T13:56:56.821Z,2029.00
2023-03-24T13:57:56.776Z,2030.00
2023-03-24T13:58:56.782Z,2039.00
2023-03-24T13:59:56.732Z,2045.00
2023-03-24T14:00:56.808Z,2064.00
2023-03-24T14:01:56.734Z,2067.00
2023-03-24T14:02:56.780Z,2068.00
2023-03-24T14:03:56.726Z,2057.00
2023-03-24T14:04:56.703Z,2079.00
2023-03-24T14:05:56.670Z,2085.00
2023-03-24T14:06:56.680Z,2095.00
2023-03-24T14:07:56.663Z,2122.00
2023-03-24T14:08:56.707Z,2101.00
2023-03-24T14:09:56.661Z,2098.00
2023-03-24T14:10:56.627Z,2113.00
2023-03-24T14:11:56.607Z,2142.00
2023-03-24T14:12:56.620Z,2152.00
2023-03-24T14:13:56.659Z,2158.00
2023-03-24T14:14:56.613Z,2143.00
2023-03-24T14:15:56.616Z,2147.00
2023-03-24T14:16:56.576Z,2165.00
2023-03-24T14:17:56.578Z,2175.00
2023-03-24T14:18:56.601Z,2202.00
2023-03-24T14:19:56.546Z,2235.00
2023-03-24T14:20:56.637Z,2270.00
2023-03-24T14:21:56.502Z,2279.00
2023-03-24T14:22:56.482Z,1798.00
2023-03-24T14:23:58.703Z,2332.00
2023-03-24T14:24:56.505Z,2431.00
2023-03-24T14:25:56.475Z,2534.00
2023-03-24T14:26:56.461Z,2446.00
2023-03-24T14:27:56.440Z,2589.00
2023-03-24T14:28:56.424Z,2307.00
2023-03-24T14:29:56.424Z,2442.00
2023-03-24T14:30:58.438Z,2557.00
2023-03-24T14:31:56.567Z,2580.00
2023-03-24T14:32:56.441Z,2840.00
2023-03-24T14:33:56.403Z,2427.00
2023-03-24T14:34:56.359Z,2556.00
2023-03-24T14:35:56.390Z,2439.00
2023-03-24T14:36:56.341Z,1710.00
2023-03-24T14:37:56.346Z,2661.00
2023-03-24T14:38:56.308Z,2519.00
2023-03-24T14:39:56.327Z,1623.00
2023-03-24T14:40:56.287Z,2757.00
2023-03-24T14:41:58.657Z,2867.00
2023-03-24T14:42:56.270Z,3067.00
2023-03-24T14:43:56.302Z,3431.00
2023-03-24T14:44:56.302Z,3224.00
2023-03-24T14:45:56.293Z,3233.00
2023-03-24T14:46:56.303Z,2301.00
2023-03-24T14:47:56.236Z,1794.00
2023-03-24T14:48:56.233Z,2341.00
2023-03-24T14:49:56.262Z,2114.00
2023-03-24T14:50:56.189Z,2035.00
2023-03-24T14:51:56.234Z,2247.00
2023-03-24T14:52:56.182Z,2401.00
2023-03-24T14:53:56.160Z,2161.00
2023-03-24T14:54:56.186Z,2389.00
2023-03-24T14:55:56.152Z,2122.00
2023-03-24T14:56:56.178Z,1718.00
2023-03-24T14:57:56.110Z,2020.00
2023-03-24T14:58:56.146Z,1598.00
2023-03-24T14:59:56.106Z,1192.00
2023-03-24T15:01:07.098Z,1238.00
2023-03-24T15:01:56.164Z,2544.00
2023-03-24T15:02:56.127Z,2594.00
2023-03-24T15:03:56.107Z,2405.00
2023-03-24T15:04:56.036Z,2359.00
2023-03-24T15:05:56.027Z,2088.00
2023-03-24T15:06:56.075Z,1789.00
2023-03-24T15:07:56.032Z,1926.00
2023-03-24T15:08:55.975Z,2048.00
2023-03-24T15:09:56.027Z,1509.00
2023-03-24T15:10:55.968Z,1418.00
2023-03-24T15:11:55.971Z,1497.00
2023-03-24T15:12:55.978Z,1699.00
2023-03-24T15:13:55.972Z,1785.00
2023-03-24T15:14:55.926Z,1446.00
2023-03-24T15:15:55.956Z,1197.00
2023-03-24T15:16:55.922Z,834.00
2023-03-24T15:17:55.936Z,558.00
2023-03-24T15:19:55.921Z,1716.00
2023-03-24T15:20:55.852Z,1940.00
2023-03-24T15:21:55.854Z,1750.00
2023-03-24T15:22:55.867Z,1566.00
2023-03-24T15:23:55.845Z,1508.00
2023-03-24T15:24:55.842Z,1241.00
2023-03-24T15:25:56.378Z,1519.00
2023-03-24T15:26:55.802Z,1098.00
2023-03-24T15:27:55.856Z,1166.00
2023-03-24T15:28:55.758Z,2238.00
2023-03-24T15:29:55.790Z,2559.00
2023-03-24T15:30:55.756Z,2692.00
2023-03-24T15:31:55.850Z,2860.00
2023-03-24T15:32:55.791Z,2235.00
2023-03-24T15:33:55.763Z,2801.00
2023-03-24T15:34:55.705Z,3095.00
2023-03-24T15:35:55.799Z,2828.00
2023-03-24T15:36:55.681Z,2897.00
2023-03-24T15:37:55.734Z,2970.00
2023-03-24T15:38:55.665Z,1880.00
2023-03-24T15:40:05.226Z,2495.00
2023-03-24T15:40:55.657Z,2085.00
2023-03-24T15:41:55.670Z,1998.00
2023-03-24T15:42:55.651Z,1409.00
2023-03-24T15:43:55.634Z,2155.00
2023-03-24T15:44:55.598Z,1865.00
2023-03-24T15:46:08.808Z,1429.00
2023-03-24T15:46:55.592Z,2312.00
2023-03-24T15:47:55.608Z,1459.00
2023-03-24T15:48:55.607Z,3128.00
2023-03-24T15:49:55.557Z,1576.00
2023-03-24T15:50:55.532Z,1865.00
2023-03-24T15:51:55.534Z,2991.00
2023-03-24T15:52:55.511Z,1378.00
2023-03-24T15:53:55.537Z,2585.00
2023-03-24T15:54:55.509Z,1865.00
2023-03-24T15:55:55.475Z,1447.00
2023-03-24T15:56:55.507Z,6558.00
2023-03-24T15:57:55.495Z,4851.00
2023-03-24T15:58:55.496Z,2717.00
2023-03-24T15:59:55.456Z,1875.00
2023-03-24T16:00:55.452Z,1688.00
2023-03-24T16:01:55.408Z,1558.00
2023-03-24T16:02:55.466Z,1715.00
2023-03-24T16:03:55.444Z,1460.00
2023-03-24T16:05:07.822Z,1228.00
2023-03-24T16:05:55.434Z,554.00
2023-03-24T16:06:55.349Z,3705.00
2023-03-24T16:07:55.361Z,1328.00
2023-03-24T16:08:55.355Z,582.00
2023-03-24T16:09:55.332Z,4639.00
2023-03-24T16:10:55.338Z,821.00
2023-03-24T16:11:55.325Z,4151.00
2023-03-24T16:12:55.272Z,3580.00
2023-03-24T16:13:55.305Z,1772.00
2023-03-24T16:14:55.270Z,1266.00
2023-03-24T16:15:55.283Z,1094.00
2023-03-24T16:16:55.344Z,974.00
2023-03-24T16:17:55.277Z,824.00
2023-03-24T16:18:55.226Z,967.00
2023-03-24T16:19:55.236Z,996.00
2023-03-24T16:20:55.207Z,864.00
2023-03-24T16:21:55.214Z,786.00
2023-03-24T16:22:55.177Z,691.00
2023-03-24T16:23:55.214Z,311.00
2023-03-24T16:24:55.147Z,1968.00
2023-03-24T16:25:55.179Z,654.00
2023-03-24T16:26:55.149Z,503.00
2023-03-24T16:27:55.149Z,445.00
2023-03-24T16:28:55.140Z,455.00
2023-03-24T16:29:55.115Z,412.00
2023-03-24T16:30:55.121Z,563.00
2023-03-24T16:31:55.213Z,406.00
2023-03-24T16:32:55.173Z,443.00
2023-03-24T16:33:57.722Z,632.00
2023-03-24T16:34:55.048Z,1045.00
2023-03-24T16:35:55.073Z,738.00
2023-03-24T16:36:55.028Z,768.00
2023-03-24T16:37:55.047Z,545.00
2023-03-24T16:38:55.043Z,699.00
2023-03-24T16:39:55.018Z,663.00
2023-03-24T16:40:54.980Z,568.00
2023-03-24T16:41:55.057Z,581.00
2023-03-24T16:42:54.954Z,459.00
2023-03-24T16:43:54.970Z,406.00
2023-03-24T16:44:55.005Z,440.00
2023-03-24T16:45:55.064Z,533.00
2023-03-24T16:46:55.050Z,575.00
2023-03-24T16:47:54.935Z,479.00
2023-03-24T16:48:54.914Z,381.00
2023-03-24T16:49:54.888Z,358.00
2023-03-24T16:50:54.892Z,405.00
2023-03-24T16:51:54.912Z,324.00
2023-03-24T16:52:54.859Z,247.00
2023-03-24T16:53:54.884Z,236.00
2023-03-24T16:54:54.845Z,390.00
2023-03-24T16:55:54.841Z,1432.00
2023-03-24T16:56:54.901Z,1225.00
2023-03-24T16:57:54.847Z,875.00